• Join FlightAware (Why Join?)
  • Login
  • US Flag 
08:06PM EDT


 

Airport Tracker/Info


-or-


 

Live Flight TrackerFlight Track Log ✈ SWA471 ✈ 26-Apr-2013 ✈ KMHT - KBWI

Flight Track Log - Related Links

Times and Time Zones

All times are in EDT time to prevent confusion due to time zone crossing. See the SWA471 flight status page for this flight to view local times or setup timezone preferences in your user account.

Time Position Orientation Groundspeed Altitude Reporting Facility
EDT Latitude Longitude Course Direction KTS MPH feet Rate Location/Type
04:06PM 42.9167 -71.4167 216° Southwest 162 186 1,000  Level KA90
04:07PM 42.8667 -71.4667 216° Southwest 234 269 3,000 1,260 Climbing KA90
04:08PM 42.8833 -71.5667 283° West 262 302 3,800 2,160 Climbing KA90
04:09PM 42.9167 -71.6500 299° West 284 327 7,400 3,360 Climbing KA90
04:10PM 42.9728 -71.6483 North 269 310 9,800 2,520 Climbing Boston Center
04:11PM 42.9928 -71.5203 78° East 245 282 11,900 2,100 Climbing Boston Center
04:12PM 43.0167 -71.3836 77° East 308 354 14,000 2,400 Climbing Boston Center
04:13PM 43.0400 -71.2383 78° East 372 428 16,800 2,340 Climbing Boston Center
04:14PM 43.0636 -71.1044 76° East 398 458 18,700 1,800 Climbing Boston Center
04:15PM 43.0511 -70.9400 96° East 398 458 20,500 1,800 Climbing Boston Center
04:16PM 42.9422 -70.8944 163° South 320 368 22,400 1,800 Climbing Boston Center
04:17PM 42.8367 -70.9536 202° Southwest 317 365 24,100 1,620 Climbing Boston Center
04:18PM 42.7269 -71.0100 201° Southwest 367 422 25,700 1,500 Climbing Boston Center
04:19PM 42.6172 -71.0606 199° South 397 457 27,100 1,440 Climbing Boston Center
04:20PM 42.5053 -71.1192 201° Southwest 420 483 28,600 1,500 Climbing Boston Center
04:21PM 42.4061 -71.1972 210° Southwest 409 471 30,200 1,500 Climbing Boston Center
04:22PM 42.3658 -71.3358 249° West 382 440 31,600 1,260 Climbing Boston Center
04:23PM 42.3275 -71.4683 249° West 383 441 32,800 1,140 Climbing Boston Center
04:24PM 42.2867 -71.5869 245° Southwest 388 447 33,900 600 Climbing Boston Center
04:25PM 42.2439 -71.7222 247° West 388 447 34,000  Climbing Boston Center
04:26PM 42.2031 -71.8544 247° West 388 447 34,000  Level Boston Center
04:27PM 42.1619 -71.9892 248° West 388 447 34,000  Level Boston Center
04:28PM 42.1186 -72.1267 247° West 394 453 34,000  Level Boston Center
04:29PM 42.0750 -72.2639 247° West 399 459 34,000  Level Boston Center
04:30PM 42.0314 -72.4039 247° West 399 459 34,000  Level Boston Center
04:31PM 41.9897 -72.5350 247° West 394 453 34,000  Level Boston Center
04:32PM 41.9417 -72.6800 246° West 394 453 34,000  Level Boston Center
04:33PM 41.8683 -72.7914 229° Southwest 394 453 34,000  Level Boston Center
04:34PM 41.7931 -72.8911 225° Southwest 408 470 34,000  Level Boston Center
04:35PM 41.7133 -72.9992 225° Southwest 413 475 34,000  Level Boston Center
04:36PM 41.6356 -73.1094 227° Southwest 413 475 34,000  Level Boston Center
04:37PM 41.5536 -73.2167 224° Southwest 413 475 34,000  Level Boston Center
04:38PM 41.4672 -73.3350 226° Southwest 413 475 34,000  Level Boston Center
04:40PM 41.2908 -73.5739 226° Southwest 417 480 34,000  Level New York Center
04:41PM 41.2172 -73.6894 230° Southwest 417 480 34,000  Level New York Center
04:42PM 41.1453 -73.8103 232° Southwest 417 480 34,000  Level New York Center
04:43PM 41.0756 -73.9308 233° Southwest 417 480 34,000 -420 Level New York Center
04:44PM 41.0058 -74.0486 232° Southwest 417 480 33,200 -900 Descending New York Center
04:45PM 40.9378 -74.1633 232° Southwest 417 480 32,200 -600 Descending New York Center
04:46PM 40.8725 -74.2672 230° Southwest 412 474 32,000 -240 Descending New York Center
04:47PM 40.8000 -74.3842 231° Southwest 412 474 31,800 -1,320 Descending New York Center
04:48PM 40.7319 -74.4981 232° Southwest 412 474 29,400 -1,980 Descending New York Center
04:49PM 40.6639 -74.6094 231° Southwest 406 467 27,900 -1,200 Descending New York Center
04:50PM 40.5997 -74.7178 232° Southwest 396 456 27,000 -900 Descending New York Center
04:51PM 40.5233 -74.8253 227° Southwest 401 461 26,100 -960 Descending New York Center
04:52PM 40.4486 -74.9328 228° Southwest 401 461 25,100 -2,040 Descending New York Center
04:53PM 40.3742 -75.0372 227° Southwest 401 461 22,100 -2,760 Descending New York Center
04:54PM 40.3014 -75.1389 227° Southwest 401 461 19,600 -2,040 Descending New York Center
04:55PM 40.2244 -75.2511 228° Southwest 389 448 18,000 -840 Descending New York Center
04:56PM 40.1606 -75.3392 227° Southwest 383 441 18,000  Level New York Center
04:57PM 40.0878 -75.4375 226° Southwest 383 441 18,000  Level New York Center
04:58PM 40.0172 -75.5386 228° Southwest 383 441 18,000 -60 Level New York Center
04:59PM 39.9464 -75.6367 227° Southwest 383 441 17,900 -540 Descending New York Center
05:00PM 39.8861 -75.7353 231° Southwest 378 435 17,000 -660 Descending New York Center
05:01PM 39.8294 -75.8419 235° Southwest 366 421 16,600 -1,680 Descending New York Center
05:03PM 39.7333 -76.0167 234° Southwest 344 396 12,800 -1,860 Descending Potomac TRACON
05:04PM 39.6833 -76.1000 232° Southwest 300 345 12,000 -1,260 Descending Potomac TRACON
05:05PM 39.6333 -76.1833 232° Southwest 279 321 10,200 -1,620 Descending Potomac TRACON
05:06PM 39.5833 -76.2333 218° Southwest 275 316 8,800 -1,680 Descending Potomac TRACON
05:07PM 39.5167 -76.3000 218° Southwest 271 312 7,000 -1,740 Descending Potomac TRACON
05:08PM 39.4500 -76.3667 218° Southwest 269 310 5,200 -1,020 Descending Potomac TRACON
05:09PM 39.3833 -76.4000 201° Southwest 270 311 4,900 -1,020 Descending Potomac TRACON
05:10PM 39.3167 -76.4167 191° South 269 310 3,200 -960 Descending Potomac TRACON
05:11PM 39.2333 -76.4333 189° South 265 305 3,000 -120 Descending Potomac TRACON
05:12PM 39.1667 -76.4333 180° South 257 296 3,000  Level Potomac TRACON
05:13PM 39.1167 -76.4667 207° Southwest 200 230 3,000  Level Potomac TRACON
05:14PM 39.0667 -76.5000 207° Southwest 193 222 3,000  Level Potomac TRACON